Time;durP1;ratioP1;P1;durP2;ratioP2;P2;SDS_P1;SDS_P2;PMS_P1;PMS_P2;Temp;Humidity;BMP_temperature;BMP_pressure;BME280_temperature;BME280_humidity;BME280_pressure;Samples;Min_cycle;Max_cycle;Signal;HPM_P1;HPM_P2
2024/01/24 00:02:21;;;;;;;6.15;1.83;;;;;;;13.85;100.00;101621.34;5290039;27;20019;-73
2024/01/24 00:04:51;;;;;;;4.93;1.60;;;;;;;13.82;100.00;101608.19;5293590;27;20372;-73
2024/01/24 00:07:22;;;;;;;9.35;1.98;;;;;;;13.83;100.00;101604.50;5285838;28;20058;-73
2024/01/24 00:09:52;;;;;;;6.15;1.70;;;;;;;13.92;100.00;101590.00;5289294;27;20023;-73
2024/01/24 00:12:23;;;;;;;7.05;1.73;;;;;;;13.84;100.00;101595.38;5286269;28;20431;-73
2024/01/24 00:14:54;;;;;;;4.32;1.48;;;;;;;13.86;100.00;101580.72;5285847;28;20026;-73
2024/01/24 00:17:24;;;;;;;4.85;1.70;;;;;;;13.87;100.00;101576.16;5292973;27;20027;-73
2024/01/24 00:19:55;;;;;;;4.10;1.58;;;;;;;13.87;100.00;101592.34;5285492;28;20023;-73
2024/01/24 00:22:25;;;;;;;8.43;1.60;;;;;;;13.90;100.00;101568.56;5289876;27;20484;-73
2024/01/24 00:24:56;;;;;;;2.83;1.50;;;;;;;13.79;100.00;101579.72;5282669;28;20107;-73
2024/01/24 00:27:26;;;;;;;6.20;1.50;;;;;;;13.88;100.00;101589.47;5285168;28;20047;-73
2024/01/24 00:29:57;;;;;;;8.43;2.85;;;;;;;13.89;100.00;101574.13;5292912;27;20020;-73
2024/01/24 00:32:27;;;;;;;2.63;1.40;;;;;;;13.88;100.00;101567.06;5289252;27;20027;-73
2024/01/24 00:34:58;;;;;;;5.93;1.88;;;;;;;13.86;100.00;101567.25;5293027;27;20030;-73
2024/01/24 00:37:28;;;;;;;6.82;1.88;;;;;;;13.91;100.00;101567.56;5292497;27;20038;-73
2024/01/24 00:39:59;;;;;;;5.28;1.25;;;;;;;13.92;100.00;101549.53;5292337;27;20495;-73
2024/01/24 00:42:29;;;;;;;7.68;1.25;;;;;;;13.98;100.00;101559.63;5286213;27;20019;-73
2024/01/24 00:45:00;;;;;;;3.42;1.30;;;;;;;14.06;100.00;101569.59;5283454;27;20015;-73
2024/01/24 00:47:30;;;;;;;2.78;1.20;;;;;;;14.03;100.00;101568.06;5285680;27;20489;-73
2024/01/24 00:50:01;;;;;;;5.00;1.65;;;;;;;14.08;100.00;101556.75;5289003;27;20026;-73
2024/01/24 00:52:31;;;;;;;4.03;1.13;;;;;;;14.07;100.00;101577.50;5288555;27;20038;-73
2024/01/24 00:55:03;;;;;;;5.18;1.42;;;;;;;14.09;100.00;101580.84;5288699;27;20025;-73
2024/01/24 00:57:34;;;;;;;2.78;1.35;;;;;;;14.17;100.00;101578.16;5284510;28;20020;-73
2024/01/24 01:00:06;;;;;;;5.97;1.40;;;;;;;14.09;100.00;101578.16;5286734;27;20027;-73
2024/01/24 01:02:37;;;;;;;3.10;1.17;;;;;;;14.07;100.00;101590.97;5288276;27;20400;-73
2024/01/24 01:05:08;;;;;;;4.85;1.38;;;;;;;13.98;100.00;101587.44;5283106;28;20034;-73
2024/01/24 01:07:38;;;;;;;3.85;1.48;;;;;;;13.82;100.00;101589.31;5277663;27;20400;-74
2024/01/24 01:10:09;;;;;;;2.42;1.52;;;;;;;13.62;100.00;101578.03;5280044;27;20016;-74
2024/01/24 01:12:40;;;;;;;4.60;1.33;;;;;;;13.61;100.00;101587.97;5279166;28;20040;-73
2024/01/24 01:15:10;;;;;;;4.80;2.05;;;;;;;13.56;100.00;101584.94;5282019;27;20026;-73
2024/01/24 01:17:41;;;;;;;4.28;2.05;;;;;;;13.46;100.00;101573.50;5285500;27;20079;-74
2024/01/24 01:20:12;;;;;;;2.50;1.20;;;;;;;13.44;100.00;101591.66;5284636;28;20523;-74
2024/01/24 01:22:42;;;;;;;7.03;1.50;;;;;;;13.42;100.00;101591.84;5284634;28;20034;-74
2024/01/24 01:25:13;;;;;;;3.90;1.50;;;;;;;13.44;100.00;101586.28;5287604;27;20019;-73
2024/01/24 01:27:43;;;;;;;5.95;1.88;;;;;;;13.49;100.00;101594.69;5287912;27;20476;-73
2024/01/24 01:30:14;;;;;;;4.80;1.50;;;;;;;13.58;100.00;101593.69;5283832;28;20035;-74
2024/01/24 01:32:44;;;;;;;4.05;1.90;;;;;;;13.46;100.00;101584.28;5287797;27;20597;-74
2024/01/24 01:35:15;;;;;;;6.32;1.75;;;;;;;13.38;100.00;101584.25;5287536;27;20024;-74
2024/01/24 01:37:45;;;;;;;3.47;1.92;;;;;;;13.32;100.00;101577.69;5287830;27;20076;-74
2024/01/24 01:40:16;;;;;;;2.53;1.63;;;;;;;13.28;100.00;101562.00;5287564;27;20020;-73
2024/01/24 01:42:46;;;;;;;2.55;1.65;;;;;;;13.24;100.00;101583.03;5290367;27;20035;-74
2024/01/24 01:45:17;;;;;;;4.45;1.60;;;;;;;13.18;100.00;101587.22;5284042;27;20059;-73
2024/01/24 01:47:48;;;;;;;3.90;1.80;;;;;;;13.15;100.00;101582.16;5290428;28;20400;-73
2024/01/24 01:50:19;;;;;;;3.97;1.50;;;;;;;13.27;100.00;101596.19;5287380;27;20024;-74
2024/01/24 01:52:50;;;;;;;3.45;1.70;;;;;;;13.20;100.00;101593.28;5290114;27;20035;-73
2024/01/24 01:55:21;;;;;;;2.72;1.88;;;;;;;13.23;100.00;101610.16;5285795;28;20019;-74
2024/01/24 01:57:53;;;;;;;2.40;1.40;;;;;;;13.18;100.00;101583.69;5287316;28;20026;-74
2024/01/24 02:00:25;;;;;;;2.33;1.48;;;;;;;13.21;100.00;101588.75;5286396;28;20051;-74
2024/01/24 02:02:56;;;;;;;2.80;1.52;;;;;;;13.13;100.00;101586.03;5290566;28;20027;-74
2024/01/24 02:05:26;;;;;;;4.15;1.58;;;;;;;13.10;100.00;101581.81;5287509;28;20020;-74
2024/01/24 02:07:57;;;;;;;2.85;1.80;;;;;;;13.07;100.00;101603.69;5293203;28;20020;-74
2024/01/24 02:10:28;;;;;;;4.07;1.70;;;;;;;13.02;100.00;101599.81;5287692;27;20020;-74
2024/01/24 02:12:59;;;;;;;5.15;1.58;;;;;;;12.96;100.00;101593.22;5289298;28;20088;-74
2024/01/24 02:15:31;;;;;;;2.80;1.70;;;;;;;12.94;100.00;101593.38;5285793;28;20020;-74
2024/01/24 02:18:02;;;;;;;2.53;1.63;;;;;;;12.96;100.00;101587.84;5284741;28;20489;-74
2024/01/24 02:20:33;;;;;;;2.78;1.88;;;;;;;13.03;100.00;101598.78;5286605;28;20034;-74
2024/01/24 02:23:04;;;;;;;3.45;1.33;;;;;;;12.98;100.00;101595.75;5287365;28;20084;-75
2024/01/24 02:25:34;;;;;;;3.90;1.85;;;;;;;12.96;100.00;101585.16;5288626;28;20019;-74
2024/01/24 02:28:05;;;;;;;3.10;1.90;;;;;;;12.87;100.00;101576.19;5290025;28;20046;-74
2024/01/24 02:30:35;;;;;;;3.38;1.80;;;;;;;12.95;100.00;101591.53;5288174;28;20023;-74
2024/01/24 02:33:06;;;;;;;2.17;1.45;;;;;;;12.87;100.00;101589.66;5287155;28;20031;-74
2024/01/24 02:35:37;;;;;;;6.10;1.30;;;;;;;12.88;100.00;101585.13;5286314;28;20019;-74
2024/01/24 02:38:07;;;;;;;1.98;1.33;;;;;;;12.84;100.00;101579.19;5289738;28;20428;-74
2024/01/24 02:40:38;;;;;;;2.55;1.30;;;;;;;12.92;100.00;101591.88;5283509;28;20423;-74
2024/01/24 02:43:08;;;;;;;1.30;0.95;;;;;;;12.92;100.00;101602.63;5290498;27;20068;-74
2024/01/24 02:45:38;;;;;;;1.50;1.13;;;;;;;12.89;100.00;101611.03;5290704;27;20084;-74
2024/01/24 02:48:09;;;;;;;2.60;1.10;;;;;;;12.84;100.00;101613.38;5292947;27;20026;-74
2024/01/24 02:50:41;;;;;;;0.70;0.70;;;;;;;12.89;100.00;101638.81;5287613;27;20440;-74
2024/01/24 02:53:11;;;;;;;2.97;0.80;;;;;;;12.92;100.00;101632.25;5295197;27;20032;-74
2024/01/24 02:55:42;;;;;;;0.68;0.60;;;;;;;12.90;100.00;101651.28;5291222;27;20035;-74
2024/01/24 02:58:19;;;;;;;1.42;0.70;;;;;;;12.93;100.00;101620.47;5283769;27;20024;-74
2024/01/24 03:00:50;;;;;;;1.80;0.77;;;;;;;12.88;100.00;101602.09;5287946;27;20515;-74
2024/01/24 03:03:21;;;;;;;1.05;0.70;;;;;;;12.95;100.00;101610.38;5287989;27;20429;-74
2024/01/24 03:05:51;;;;;;;1.00;0.63;;;;;;;12.95;100.00;101621.13;5290464;27;20028;-74
2024/01/24 03:08:22;;;;;;;0.65;0.60;;;;;;;12.93;100.00;101615.09;5288667;27;20023;-74
2024/01/24 03:10:55;;;;;;;1.05;0.60;;;;;;;12.94;100.00;101616.78;5290982;27;20612;-74
2024/01/24 03:13:25;;;;;;;3.80;0.57;;;;;;;12.91;100.00;101611.72;5288141;28;20038;-74
2024/01/24 03:15:56;;;;;;;0.82;0.50;;;;;;;12.94;100.00;101617.59;5289586;27;20019;-74
2024/01/24 03:18:28;;;;;;;1.02;0.57;;;;;;;12.91;100.00;101646.75;5286148;27;20477;-74
2024/01/24 03:20:58;;;;;;;0.88;0.45;;;;;;;12.91;100.00;101644.03;5289858;27;20568;-74
2024/01/24 03:23:29;;;;;;;0.95;0.82;;;;;;;12.90;100.00;101623.47;5292791;27;20019;-74
2024/01/24 03:26:00;;;;;;;1.33;0.70;;;;;;;12.84;100.00;101633.06;5291496;27;20015;-74
2024/01/24 03:28:31;;;;;;;1.75;0.60;;;;;;;12.74;100.00;101601.88;5292631;27;20046;-74
2024/01/24 03:31:02;;;;;;;3.60;0.93;;;;;;;12.71;100.00;101600.38;5291444;27;20030;-74
2024/01/24 03:33:33;;;;;;;5.07;0.82;;;;;;;12.68;100.00;101622.22;5286545;28;20118;-74
2024/01/24 03:36:04;;;;;;;4.78;1.15;;;;;;;12.73;100.00;101630.66;5290931;27;20536;-74
2024/01/24 03:38:34;;;;;;;7.95;1.13;;;;;;;12.77;100.00;101613.19;5287762;28;20023;-74
2024/01/24 03:41:05;;;;;;;8.90;1.08;;;;;;;12.79;100.00;101635.38;5292459;27;20025;-74
2024/01/24 03:43:42;;;;;;;9.25;1.50;;;;;;;12.84;100.00;101638.44;5291939;27;20029;-74
2024/01/24 03:46:12;;;;;;;10.75;1.60;;;;;;;12.82;100.00;101615.38;5285488;28;20042;-74
2024/01/24 03:48:43;;;;;;;11.23;1.77;;;;;;;12.94;100.00;101649.09;5289951;27;20358;-74
2024/01/24 03:51:13;;;;;;;10.65;1.95;;;;;;;13.02;100.00;101641.06;5290701;27;20035;-74
2024/01/24 03:53:44;;;;;;;15.50;2.00;;;;;;;13.09;100.00;101643.94;5288640;27;20104;-74
2024/01/24 03:56:14;;;;;;;11.93;1.50;;;;;;;13.12;100.00;101646.31;5288325;27;20106;-74
2024/01/24 03:58:46;;;;;;;13.77;2.05;;;;;;;13.16;100.00;101672.75;5288637;27;20115;-74
2024/01/24 04:01:16;;;;;;;8.98;1.95;;;;;;;13.20;100.00;101652.56;5289105;27;20686;-74
2024/01/24 04:03:48;;;;;;;15.98;2.00;;;;;;;13.19;100.00;101667.03;5288837;27;20050;-74
2024/01/24 04:06:18;;;;;;;14.45;2.30;;;;;;;13.21;100.00;101646.19;5285954;28;20096;-74
2024/01/24 04:08:49;;;;;;;11.77;2.15;;;;;;;13.20;100.00;101643.63;5287541;27;20027;-74
2024/01/24 04:11:19;;;;;;;14.20;2.22;;;;;;;13.23;100.00;101677.53;5288677;27;20027;-74
2024/01/24 04:13:53;;;;;;;13.02;2.10;;;;;;;13.12;100.00;101676.78;5289846;27;21138;-74
2024/01/24 04:16:24;;;;;;;12.95;2.33;;;;;;;13.22;100.00;101679.38;5286106;27;20019;-74
2024/01/24 04:18:54;;;;;;;16.55;2.13;;;;;;;13.15;100.00;101676.47;5287601;27;20023;-74
2024/01/24 04:21:25;;;;;;;21.20;2.65;;;;;;;13.24;100.00;101654.94;5283452;27;20038;-74
2024/01/24 04:23:55;;;;;;;16.52;2.10;;;;;;;13.18;100.00;101664.50;5287789;27;20543;-74
2024/01/24 04:26:26;;;;;;;16.02;2.55;;;;;;;13.23;100.00;101656.81;5285509;28;20039;-74
2024/01/24 04:28:56;;;;;;;18.48;2.53;;;;;;;13.20;100.00;101660.66;5287424;27;20503;-74
2024/01/24 04:31:27;;;;;;;11.52;2.42;;;;;;;13.20;100.00;101693.00;5289975;27;20024;-74
2024/01/24 04:33:57;;;;;;;20.35;2.70;;;;;;;13.29;100.00;101682.25;5289214;27;20080;-74
2024/01/24 04:36:27;;;;;;;22.00;3.05;;;;;;;13.22;100.00;101668.59;5281655;28;20024;-74
2024/01/24 04:38:59;;;;;;;27.80;3.55;;;;;;;13.32;100.00;101698.09;5285843;27;20027;-74
2024/01/24 04:41:29;;;;;;;26.55;3.50;;;;;;;13.23;100.00;101674.81;5283000;27;20039;-74
2024/01/24 04:44:00;;;;;;;24.90;5.03;;;;;;;13.22;100.00;101703.63;5287772;27;20015;-74
2024/01/24 04:46:30;;;;;;;23.17;4.10;;;;;;;13.15;100.00;101686.38;5284882;27;20107;-74
2024/01/24 04:49:02;;;;;;;26.38;3.72;;;;;;;13.17;100.00;101692.47;5300639;27;20038;-74
2024/01/24 04:51:32;;;;;;;23.67;4.55;;;;;;;13.16;100.00;101690.78;5285728;28;20046;-74
2024/01/24 04:54:03;;;;;;;28.38;4.00;;;;;;;13.02;100.00;101689.53;5294431;27;20035;-74
2024/01/24 04:56:34;;;;;;;26.42;4.28;;;;;;;13.08;100.00;101679.97;5280954;27;20020;-74
2024/01/24 04:59:05;;;;;;;23.27;4.07;;;;;;;13.06;100.00;101703.53;5285009;27;20023;-74
2024/01/24 05:01:35;;;;;;;23.33;3.20;;;;;;;13.04;100.00;101695.59;5283069;27;20657;-74
2024/01/24 05:04:06;;;;;;;32.65;5.05;;;;;;;13.10;100.00;101721.03;5286637;27;20501;-73
2024/01/24 05:06:36;;;;;;;32.80;4.88;;;;;;;13.06;100.00;101723.22;5286409;27;20031;-73
2024/01/24 05:09:07;;;;;;;29.27;4.65;;;;;;;13.10;100.00;101746.16;5287867;27;20027;-74
2024/01/24 05:11:41;;;;;;;36.80;5.25;;;;;;;13.04;100.00;101719.84;5288750;27;20107;-73
2024/01/24 05:14:12;;;;;;;30.17;4.20;;;;;;;13.09;100.00;101738.22;5278644;28;20054;-73
2024/01/24 05:16:43;;;;;;;28.65;5.20;;;;;;;13.05;100.00;101747.63;5287052;27;20074;-73
2024/01/24 05:19:13;;;;;;;40.17;4.40;;;;;;;13.06;100.00;101768.19;5287800;27;20027;-73
2024/01/24 05:21:44;;;;;;;35.00;5.88;;;;;;;13.01;100.00;101727.41;5287875;27;20039;-73
2024/01/24 05:24:14;;;;;;;31.80;4.47;;;;;;;13.05;100.00;101756.56;5288407;27;20031;-73
2024/01/24 05:26:46;;;;;;;32.65;5.75;;;;;;;12.96;100.00;101734.13;5284122;28;20084;-73
2024/01/24 05:29:16;;;;;;;36.78;7.13;;;;;;;12.93;100.00;101720.97;5288606;27;20027;-73
2024/01/24 05:31:47;;;;;;;26.10;5.68;;;;;;;12.91;100.00;101741.84;5288408;27;20057;-73
2024/01/24 05:34:18;;;;;;;35.55;4.63;;;;;;;12.93;100.00;101742.50;5288617;27;20008;-73
2024/01/24 05:36:48;;;;;;;40.13;7.88;;;;;;;12.84;100.00;101759.63;5288118;27;20519;-73
2024/01/24 05:39:19;;;;;;;26.42;4.97;;;;;;;12.89;100.00;101786.06;5286797;27;20047;-73
2024/01/24 05:41:50;;;;;;;36.92;5.40;;;;;;;12.86;100.00;101786.41;5288416;27;20435;-73
2024/01/24 05:44:20;;;;;;;44.53;6.28;;;;;;;12.95;100.00;101807.84;5286514;27;20038;-73
2024/01/24 05:46:51;;;;;;;37.80;6.78;;;;;;;12.87;100.00;101785.41;5287725;27;20532;-73
2024/01/24 05:49:21;;;;;;;39.88;6.40;;;;;;;12.81;100.00;101803.03;5286137;27;20028;-73
2024/01/24 05:51:52;;;;;;;33.50;5.78;;;;;;;12.93;100.00;101800.91;5287351;27;20031;-74
2024/01/24 05:54:22;;;;;;;41.28;6.18;;;;;;;12.94;100.00;101827.69;5284339;28;20016;-74
2024/01/24 05:56:53;;;;;;;35.83;6.05;;;;;;;12.96;100.00;101827.56;5286275;27;20115;-74
2024/01/24 05:59:23;;;;;;;39.78;7.55;;;;;;;12.87;100.00;101818.56;5284711;28;20485;-74
2024/01/24 06:01:54;;;;;;;51.33;10.50;;;;;;;12.91;100.00;101819.09;5286721;28;20049;-74
2024/01/24 06:04:24;;;;;;;37.92;7.40;;;;;;;12.76;100.00;101837.66;5287592;27;20473;-74
2024/01/24 06:06:55;;;;;;;53.15;13.52;;;;;;;12.80;100.00;101851.66;5287648;28;20031;-74
2024/01/24 06:09:25;;;;;;;61.35;19.55;;;;;;;12.79;100.00;101866.97;5287108;27;20039;-74
2024/01/24 06:11:55;;;;;;;70.15;23.65;;;;;;;12.85;100.00;101842.13;5286402;28;20477;-74
2024/01/24 06:14:26;;;;;;;48.50;10.18;;;;;;;12.88;100.00;101846.34;5286056;28;20472;-73
2024/01/24 06:16:56;;;;;;;47.80;8.23;;;;;;;12.80;100.00;101820.22;5288221;27;20027;-74
2024/01/24 06:19:27;;;;;;;51.65;7.10;;;;;;;12.75;100.00;101816.25;5291201;27;20076;-72
2024/01/24 06:21:57;;;;;;;50.28;7.15;;;;;;;12.81;100.00;101831.81;5290609;27;20091;-72
2024/01/24 06:24:28;;;;;;;46.85;8.68;;;;;;;12.81;100.00;101834.50;5284930;27;20102;-72
2024/01/24 06:26:58;;;;;;;40.10;6.20;;;;;;;12.75;100.00;101844.06;5290050;27;20027;-72
2024/01/24 06:29:29;;;;;;;56.65;10.30;;;;;;;12.75;100.00;101880.88;5289915;27;20073;-73
2024/01/24 06:32:00;;;;;;;38.45;8.90;;;;;;;12.72;100.00;101878.53;5290341;27;20034;-73
2024/01/24 06:34:30;;;;;;;82.70;24.95;;;;;;;12.73;100.00;101872.13;5290230;27;20073;-73
2024/01/24 06:37:01;;;;;;;75.32;24.63;;;;;;;12.82;100.00;101873.91;5288485;27;20039;-73
2024/01/24 06:39:31;;;;;;;56.35;12.88;;;;;;;12.79;100.00;101853.50;5289642;27;20034;-73
2024/01/24 06:42:01;;;;;;;46.10;12.73;;;;;;;12.72;100.00;101875.84;5288133;27;20032;-73
2024/01/24 06:44:32;;;;;;;40.45;7.95;;;;;;;12.74;100.00;101900.75;5286632;28;20080;-73
2024/01/24 06:47:03;;;;;;;52.45;7.40;;;;;;;12.76;100.00;101920.28;5283706;27;20039;-73
2024/01/24 06:49:33;;;;;;;39.00;8.43;;;;;;;12.65;100.00;101915.97;5289139;27;20020;-73
2024/01/24 06:52:04;;;;;;;51.22;6.70;;;;;;;12.72;100.00;101946.69;5282622;28;20115;-73
2024/01/24 06:54:35;;;;;;;45.45;8.88;;;;;;;12.75;100.00;101951.78;5282954;27;20504;-73
2024/01/24 06:57:06;;;;;;;68.47;10.48;;;;;;;12.72;100.00;101948.53;5287884;27;20035;-72
2024/01/24 06:59:36;;;;;;;46.42;10.40;;;;;;;12.69;100.00;101949.66;5288774;27;20466;-73
2024/01/24 07:02:06;;;;;;;52.33;10.93;;;;;;;12.58;100.00;101956.13;5289099;27;20035;-72
2024/01/24 07:04:37;;;;;;;51.22;8.88;;;;;;;12.57;100.00;101949.06;5289926;27;20023;-73
2024/01/24 07:07:07;;;;;;;43.53;7.80;;;;;;;12.53;100.00;101958.44;5287723;27;20488;-72
2024/01/24 07:09:38;;;;;;;57.72;10.65;;;;;;;12.43;100.00;101958.47;5287961;28;20027;-73
2024/01/24 07:12:08;;;;;;;53.63;9.52;;;;;;;12.43;100.00;101955.78;5289589;27;20468;-72
2024/01/24 07:14:39;;;;;;;47.53;7.82;;;;;;;12.49;100.00;101965.09;5287941;28;20445;-73
2024/01/24 07:17:10;;;;;;;53.10;9.38;;;;;;;12.54;100.00;101984.34;5287543;27;20035;-72
2024/01/24 07:19:40;;;;;;;58.00;13.15;;;;;;;12.46;100.00;101997.72;5286405;28;20031;-73
2024/01/24 07:22:11;;;;;;;59.78;9.20;;;;;;;12.47;100.00;101996.72;5288920;27;20499;-72
2024/01/24 07:24:44;;;;;;;48.67;8.25;;;;;;;12.47;100.00;101988.66;5287576;28;20564;-73
2024/01/24 07:27:14;;;;;;;59.10;8.50;;;;;;;12.40;100.00;101991.09;5289069;27;20062;-72
2024/01/24 07:29:45;;;;;;;55.83;8.50;;;;;;;12.34;100.00;101994.38;5286663;28;20492;-72
2024/01/24 07:32:15;;;;;;;51.72;9.63;;;;;;;12.37;100.00;102022.84;5287825;27;20499;-72
2024/01/24 07:34:46;;;;;;;61.38;8.45;;;;;;;12.33;100.00;102021.44;5274798;28;20411;-73
2024/01/24 07:37:16;;;;;;;46.55;8.23;;;;;;;12.32;100.00;102030.50;5285227;27;20076;-72
2024/01/24 07:39:47;;;;;;;37.53;7.28;;;;;;;12.31;100.00;102015.38;5285895;28;20027;-73
2024/01/24 07:42:18;;;;;;;57.08;8.50;;;;;;;12.29;100.00;102006.59;5284993;28;20023;-73
2024/01/24 07:44:48;;;;;;;64.18;13.85;;;;;;;12.31;100.00;102010.00;5285615;27;20020;-72
2024/01/24 07:47:19;;;;;;;70.93;22.80;;;;;;;12.25;100.00;102015.94;5285936;27;20034;-72
2024/01/24 07:49:49;;;;;;;67.00;16.52;;;;;;;12.28;100.00;102023.72;5281985;28;20042;-72
2024/01/24 07:52:20;;;;;;;73.30;21.05;;;;;;;12.20;100.00;102043.31;5286247;27;20020;-72
2024/01/24 07:54:51;;;;;;;66.32;15.00;;;;;;;12.19;100.00;102045.13;5279828;27;20027;-72
2024/01/24 07:57:21;;;;;;;66.90;9.63;;;;;;;12.18;100.00;102043.44;5285028;28;20031;-72
2024/01/24 07:59:51;;;;;;;60.60;9.20;;;;;;;12.15;100.00;102026.78;5278664;28;20023;-72
2024/01/24 08:02:22;;;;;;;60.65;9.20;;;;;;;12.05;100.00;102053.69;5285992;27;20022;-72
2024/01/24 08:04:52;;;;;;;45.40;6.93;;;;;;;12.03;100.00;102036.84;5284833;27;20027;-72
2024/01/24 08:07:23;;;;;;;67.85;8.27;;;;;;;11.94;100.00;102043.09;5285972;27;20092;-72
2024/01/24 08:09:54;;;;;;;63.85;9.23;;;;;;;11.91;100.00;102062.22;5287559;27;20102;-73
2024/01/24 08:12:24;;;;;;;159.38;87.97;;;;;;;12.01;100.00;102062.22;5285717;27;20020;-73
2024/01/24 08:14:54;;;;;;;61.50;10.60;;;;;;;11.98;100.00;102068.72;5284947;27;20020;-72
2024/01/24 08:17:25;;;;;;;65.80;10.00;;;;;;;12.04;100.00;102067.28;5284895;28;20023;-73
2024/01/24 08:19:55;;;;;;;54.88;8.75;;;;;;;11.99;100.00;102061.50;5285532;27;20492;-72
2024/01/24 08:22:28;;;;;;;60.00;8.68;;;;;;;12.06;100.00;102076.06;5285213;28;20084;-72
2024/01/24 08:24:59;;;;;;;64.32;10.25;;;;;;;12.10;100.00;102082.84;5284286;27;20024;-72
2024/01/24 08:27:29;;;;;;;58.30;9.82;;;;;;;12.03;100.00;102082.56;5285204;27;20027;-72
2024/01/24 08:30:00;;;;;;;50.28;9.90;;;;;;;12.03;100.00;102079.88;5284830;27;20138;-72
2024/01/24 08:32:31;;;;;;;62.63;10.55;;;;;;;12.00;100.00;102079.31;5285629;27;20027;-72
2024/01/24 08:35:03;;;;;;;51.25;10.20;;;;;;;12.02;100.00;102088.09;5284041;28;20096;-72
2024/01/24 08:37:34;;;;;;;51.03;12.10;;;;;;;12.02;100.00;102098.88;5284191;28;20089;-72
2024/01/24 08:40:06;;;;;;;51.10;8.95;;;;;;;12.07;100.00;102102.81;5281861;27;20528;-72
2024/01/24 08:42:37;;;;;;;58.38;11.65;;;;;;;12.07;100.00;102116.25;5286258;27;20063;-72
2024/01/24 08:45:09;;;;;;;57.90;8.65;;;;;;;12.12;100.00;102130.13;5283665;27;20035;-72
2024/01/24 08:47:39;;;;;;;51.10;10.88;;;;;;;12.12;100.00;102100.53;5272243;28;20408;-72
2024/01/24 08:50:10;;;;;;;56.33;11.15;;;;;;;12.07;100.00;102089.34;5277452;28;20043;-72
2024/01/24 08:52:41;;;;;;;55.53;8.57;;;;;;;12.09;100.00;102125.00;5284374;28;20024;-72
2024/01/24 08:55:13;;;;;;;61.85;9.18;;;;;;;12.11;100.00;102125.75;5284576;27;20134;-72
2024/01/24 08:57:44;;;;;;;69.45;12.00;;;;;;;12.09;100.00;102129.56;5284494;28;20039;-73
2024/01/24 09:00:14;;;;;;;49.67;11.40;;;;;;;12.12;100.00;102132.81;5282617;28;20393;-72
2024/01/24 09:02:46;;;;;;;58.08;11.25;;;;;;;12.13;100.00;102149.78;5279263;27;20031;-72
2024/01/24 09:05:19;;;;;;;66.75;11.80;;;;;;;12.22;100.00;102143.56;5283039;27;20031;-72
2024/01/24 09:07:50;;;;;;;67.55;18.17;;;;;;;12.22;100.00;102143.56;5286736;27;20031;-73
2024/01/24 09:10:20;;;;;;;65.70;12.85;;;;;;;12.30;100.00;102149.06;5285521;27;20030;-72
2024/01/24 09:12:51;;;;;;;50.05;11.65;;;;;;;12.24;100.00;102146.94;5285826;27;20156;-72
2024/01/24 09:15:22;;;;;;;82.90;20.90;;;;;;;12.28;100.00;102144.81;5286887;27;20094;-72
2024/01/24 09:17:53;;;;;;;85.22;24.30;;;;;;;12.32;100.00;102173.97;5285629;27;20034;-72
2024/01/24 09:20:23;;;;;;;63.45;12.27;;;;;;;12.24;100.00;102184.59;5285998;27;20019;-72
2024/01/24 09:22:54;;;;;;;71.20;18.20;;;;;;;12.37;100.00;102185.16;5286188;27;20615;-72
2024/01/24 09:25:24;;;;;;;79.00;24.30;;;;;;;12.37;100.00;102205.84;5278053;27;20023;-72
2024/01/24 09:27:56;;;;;;;51.72;9.27;;;;;;;12.41;100.00;102223.41;5283183;28;20076;-72
2024/01/24 09:30:26;;;;;;;55.58;14.77;;;;;;;12.35;100.00;102215.88;5287505;27;20057;-72
2024/01/24 09:32:57;;;;;;;65.65;9.38;;;;;;;12.37;100.00;102222.81;5285819;27;20059;-72
2024/01/24 09:35:27;;;;;;;63.28;16.17;;;;;;;12.39;100.00;102217.28;5287997;27;20544;-72
2024/01/24 09:37:59;;;;;;;57.50;10.75;;;;;;;12.41;100.00;102223.41;5285316;28;20698;-72
2024/01/24 09:40:30;;;;;;;69.70;11.25;;;;;;;12.42;100.00;102214.31;5282429;28;20023;-72
2024/01/24 09:43:01;;;;;;;49.15;8.40;;;;;;;12.49;100.00;102226.19;5285985;27;20031;-72
2024/01/24 09:45:35;;;;;;;47.28;8.30;;;;;;;12.44;100.00;102223.94;5283806;27;20100;-72
2024/01/24 09:48:07;;;;;;;66.00;9.77;;;;;;;12.48;100.00;102240.66;5285095;27;20393;-72
2024/01/24 09:50:39;;;;;;;57.17;10.25;;;;;;;12.50;100.00;102244.06;5280615;27;20043;-72
2024/01/24 09:53:15;;;;;;;46.95;7.30;;;;;;;12.50;100.00;102241.38;5287400;27;20027;-72
2024/01/24 09:55:48;;;;;;;57.08;11.38;;;;;;;12.54;100.00;102233.84;5284955;27;20024;-73
2024/01/24 09:58:19;;;;;;;70.97;8.40;;;;;;;12.52;100.00;102239.38;5286065;28;20042;-72
2024/01/24 10:00:51;;;;;;;48.67;11.27;;;;;;;12.48;100.00;102243.34;5286095;28;20019;-72
2024/01/24 10:03:24;;;;;;;51.10;8.43;;;;;;;12.40;100.00;102257.53;5281812;28;20019;-72
2024/01/24 10:05:55;;;;;;;74.15;11.60;;;;;;;12.48;100.00;102262.19;5275973;28;20035;-72
2024/01/24 10:08:26;;;;;;;51.47;7.70;;;;;;;12.44;100.00;102267.00;5276457;28;20036;-72
2024/01/24 10:10:57;;;;;;;52.65;10.15;;;;;;;12.54;100.00;102256.22;5278556;28;20110;-73
2024/01/24 10:13:29;;;;;;;49.47;10.90;;;;;;;12.57;100.00;102261.31;5287010;27;20192;-72
2024/01/24 10:16:00;;;;;;;51.15;9.13;;;;;;;12.58;100.00;102281.00;5283261;28;20050;-72
2024/01/24 10:18:31;;;;;;;49.65;9.15;;;;;;;12.60;100.00;102285.28;5281152;27;20016;-73
2024/01/24 10:21:04;;;;;;;50.55;8.40;;;;;;;12.62;100.00;102307.50;5278650;28;20038;-73
2024/01/24 10:23:35;;;;;;;58.80;10.05;;;;;;;12.64;100.00;102308.19;5266141;28;20055;-73
2024/01/24 10:26:06;;;;;;;63.72;10.57;;;;;;;12.73;100.00;102298.41;5279839;28;20070;-72
2024/01/24 10:28:37;;;;;;;45.63;8.70;;;;;;;12.66;100.00;102308.91;5275456;28;20036;-72
2024/01/24 10:31:08;;;;;;;52.35;8.90;;;;;;;12.67;100.00;102305.22;5282499;28;20046;-72
2024/01/24 10:33:39;;;;;;;49.47;11.00;;;;;;;12.67;100.00;102325.91;5285770;27;20653;-72
2024/01/24 10:36:10;;;;;;;49.80;7.20;;;;;;;12.56;100.00;102321.53;5285308;28;20059;-72
2024/01/24 10:38:47;;;;;;;57.88;11.38;;;;;;;12.68;100.00;102324.91;5282961;27;20088;-72
2024/01/24 10:41:19;;;;;;;68.45;11.80;;;;;;;12.72;100.00;102320.94;5279096;27;20031;-72
2024/01/24 10:43:55;;;;;;;56.97;10.98;;;;;;;12.70;100.00;102326.50;5277111;28;20080;-72
2024/01/24 10:46:26;;;;;;;53.30;12.60;;;;;;;12.75;100.00;102325.19;5285388;28;20476;-72
2024/01/24 10:48:58;;;;;;;48.05;9.20;;;;;;;12.78;100.00;102344.59;5280115;28;20039;-72
2024/01/24 10:51:29;;;;;;;55.95;10.80;;;;;;;12.93;100.00;102353.09;5281388;28;20047;-72
2024/01/24 10:54:03;;;;;;;60.35;9.05;;;;;;;13.08;100.00;102348.09;5274175;28;20480;-72
2024/01/24 10:56:34;;;;;;;59.22;9.80;;;;;;;13.14;100.00;102339.41;5279397;28;20076;-72
2024/01/24 10:59:08;;;;;;;56.40;15.38;;;;;;;13.23;100.00;102341.25;5280423;28;20434;-72
2024/01/24 11:01:38;;;;;;;53.95;13.77;;;;;;;13.35;100.00;102352.69;5276345;28;20039;-72
2024/01/24 11:04:11;;;;;;;81.88;22.98;;;;;;;13.28;100.00;102351.59;5283564;27;20066;-72
2024/01/24 11:06:51;;;;;;;58.25;11.57;;;;;;;13.26;100.00;102372.47;5284446;28;20104;-72
2024/01/24 11:09:30;;;;;;;52.83;9.45;;;;;;;13.27;100.00;102393.88;5285153;27;20039;-72
2024/01/24 11:12:01;;;;;;;42.40;8.80;;;;;;;13.34;100.00;102356.38;5283113;28;20110;-72
2024/01/24 11:14:33;;;;;;;46.47;7.97;;;;;;;13.28;100.00;102360.53;5284106;27;20173;-72
2024/01/24 11:17:05;;;;;;;51.08;8.00;;;;;;;13.28;100.00;102370.47;5281954;28;20031;-72
2024/01/24 11:19:36;;;;;;;41.70;6.93;;;;;;;13.30;100.00;102385.47;5286651;27;20028;-72
2024/01/24 11:22:23;;;;;;;54.35;9.05;;;;;;;13.47;100.00;102383.88;5285003;27;20392;-72
2024/01/24 11:24:54;;;;;;;38.95;7.43;;;;;;;13.55;100.00;102383.97;5282338;27;20169;-72
2024/01/24 11:27:33;;;;;;;44.50;7.57;;;;;;;13.40;100.00;102410.59;5283831;27;20016;-72